createdAt,value
2023-01-23T00:00:16.592Z,3.23
2023-01-23T00:01:16.558Z,3.26
2023-01-23T00:02:16.563Z,3.26
2023-01-23T00:03:16.522Z,3.28
2023-01-23T00:04:16.541Z,3.28
2023-01-23T00:05:16.485Z,3.29
2023-01-23T00:06:16.501Z,3.31
2023-01-23T00:07:16.505Z,3.32
2023-01-23T00:08:16.460Z,3.32
2023-01-23T00:09:16.459Z,3.34
2023-01-23T00:10:16.429Z,3.36
2023-01-23T00:11:16.426Z,3.37
2023-01-23T00:12:16.421Z,3.37
2023-01-23T00:13:16.411Z,3.37
2023-01-23T00:14:16.382Z,3.37
2023-01-23T00:15:16.386Z,3.40
2023-01-23T00:16:16.356Z,3.41
2023-01-23T00:17:16.363Z,3.41
2023-01-23T00:18:16.335Z,3.44
2023-01-23T00:19:16.364Z,3.42
2023-01-23T00:20:16.327Z,3.45
2023-01-23T00:21:16.335Z,3.44
2023-01-23T00:22:16.317Z,3.47
2023-01-23T00:23:16.289Z,3.45
2023-01-23T00:24:16.286Z,3.47
2023-01-23T00:25:16.257Z,3.47
2023-01-23T00:26:16.256Z,3.47
2023-01-23T00:27:16.323Z,3.47
2023-01-23T00:28:16.287Z,3.47
2023-01-23T00:29:16.230Z,3.45
2023-01-23T00:30:16.335Z,3.45
2023-01-23T00:31:16.322Z,3.47
2023-01-23T00:32:16.240Z,3.47
2023-01-23T00:33:16.200Z,3.47
2023-01-23T00:34:16.168Z,3.47
2023-01-23T00:35:16.162Z,3.48
2023-01-23T00:36:16.144Z,3.48
2023-01-23T00:37:16.138Z,3.47
2023-01-23T00:38:16.177Z,3.48
2023-01-23T00:39:16.120Z,3.48
2023-01-23T00:40:16.105Z,3.50
2023-01-23T00:41:16.102Z,3.51
2023-01-23T00:42:16.079Z,3.50
2023-01-23T00:43:16.080Z,3.50
2023-01-23T00:44:16.089Z,3.53
2023-01-23T00:45:16.059Z,3.51
2023-01-23T00:46:16.097Z,3.53
2023-01-23T00:47:16.020Z,3.53
2023-01-23T00:48:16.020Z,3.53
2023-01-23T00:49:16.053Z,3.53
2023-01-23T00:50:15.996Z,3.53
2023-01-23T00:51:16.026Z,3.53
2023-01-23T00:52:15.980Z,3.55
2023-01-23T00:53:15.956Z,3.53
2023-01-23T00:54:15.983Z,3.55
2023-01-23T00:55:15.962Z,3.53
2023-01-23T00:56:15.937Z,3.55
2023-01-23T00:57:15.922Z,3.55
2023-01-23T00:58:15.956Z,3.55
2023-01-23T00:59:15.904Z,3.55
2023-01-23T01:00:15.886Z,3.53
2023-01-23T01:01:15.942Z,3.53
2023-01-23T01:02:15.867Z,3.53
2023-01-23T01:03:15.862Z,3.51
2023-01-23T01:04:15.862Z,3.50
2023-01-23T01:05:15.852Z,3.48
2023-01-23T01:06:15.840Z,3.48
2023-01-23T01:07:15.834Z,3.50
2023-01-23T01:08:15.803Z,3.50
2023-01-23T01:09:15.795Z,3.50
2023-01-23T01:10:15.775Z,3.50
2023-01-23T01:11:15.777Z,3.48
2023-01-23T01:12:15.755Z,3.48
2023-01-23T01:13:15.768Z,3.47
2023-01-23T01:14:15.764Z,3.45
2023-01-23T01:15:15.732Z,3.47
2023-01-23T01:16:15.749Z,3.45
2023-01-23T01:17:15.700Z,3.47
2023-01-23T01:18:15.723Z,3.44
2023-01-23T01:19:15.709Z,3.45
2023-01-23T01:20:15.676Z,3.45
2023-01-23T01:21:15.679Z,3.47
2023-01-23T01:22:15.646Z,3.47
2023-01-23T01:23:15.681Z,3.47
2023-01-23T01:24:15.633Z,3.47
2023-01-23T01:25:15.652Z,3.45
2023-01-23T01:26:15.616Z,3.45
2023-01-23T01:27:15.598Z,3.45
2023-01-23T01:28:15.590Z,3.45
2023-01-23T01:29:15.613Z,3.45
2023-01-23T01:30:15.568Z,3.47
2023-01-23T01:31:15.632Z,3.47
2023-01-23T01:32:16.503Z,3.50
2023-01-23T01:33:15.535Z,3.50
2023-01-23T01:34:15.539Z,3.50
2023-01-23T01:35:15.528Z,3.51
2023-01-23T01:36:15.523Z,3.50
2023-01-23T01:37:15.502Z,3.48
2023-01-23T01:38:15.468Z,3.48
2023-01-23T01:39:15.490Z,3.47
2023-01-23T01:40:15.453Z,3.47
2023-01-23T01:41:15.464Z,3.47
2023-01-23T01:42:15.443Z,3.47
2023-01-23T01:43:15.423Z,3.45
2023-01-23T01:44:15.399Z,3.45
2023-01-23T01:45:15.426Z,3.45
2023-01-23T01:46:15.451Z,3.45
2023-01-23T01:47:15.377Z,3.44
2023-01-23T01:48:15.368Z,3.44
2023-01-23T01:49:15.373Z,3.42
2023-01-23T01:50:15.336Z,3.41
2023-01-23T01:51:15.378Z,3.44
2023-01-23T01:52:15.352Z,3.42
2023-01-23T01:53:15.307Z,3.41
2023-01-23T01:54:15.299Z,3.40
2023-01-23T01:55:15.314Z,3.40
2023-01-23T01:56:15.281Z,3.37
2023-01-23T01:57:15.288Z,3.40
2023-01-23T01:58:15.263Z,3.37
2023-01-23T01:59:15.247Z,3.40
2023-01-23T02:00:15.255Z,3.40
2023-01-23T02:01:15.225Z,3.41
2023-01-23T02:02:15.344Z,3.41
2023-01-23T02:03:15.203Z,3.37
2023-01-23T02:04:15.183Z,3.36
2023-01-23T02:05:16.175Z,3.34
2023-01-23T02:06:15.176Z,3.32
2023-01-23T02:07:15.164Z,3.32
2023-01-23T02:08:15.143Z,3.32
2023-01-23T02:09:15.144Z,3.34
2023-01-23T02:10:16.084Z,3.34
2023-01-23T02:11:15.159Z,3.32
2023-01-23T02:12:15.109Z,3.34
2023-01-23T02:13:15.098Z,3.36
2023-01-23T02:14:15.127Z,3.36
2023-01-23T02:15:15.076Z,3.37
2023-01-23T02:16:15.097Z,3.37
2023-01-23T02:17:15.069Z,3.40
2023-01-23T02:18:15.036Z,3.40
2023-01-23T02:19:15.032Z,3.37
2023-01-23T02:20:15.071Z,3.36
2023-01-23T02:21:15.006Z,3.34
2023-01-23T02:22:14.987Z,3.34
2023-01-23T02:23:14.987Z,3.36
2023-01-23T02:24:14.990Z,3.36
2023-01-23T02:25:15.003Z,3.34
2023-01-23T02:26:14.953Z,3.34
2023-01-23T02:27:14.947Z,3.34
2023-01-23T02:28:14.929Z,3.32
2023-01-23T02:29:14.934Z,3.36
2023-01-23T02:30:14.903Z,3.34
2023-01-23T02:31:15.026Z,3.34
2023-01-23T02:32:14.889Z,3.34
2023-01-23T02:33:14.896Z,3.36
2023-01-23T02:34:14.859Z,3.37
2023-01-23T02:35:14.862Z,3.40
2023-01-23T02:36:14.859Z,3.41
2023-01-23T02:37:14.830Z,3.40
2023-01-23T02:38:14.883Z,3.41
2023-01-23T02:39:14.829Z,3.41
2023-01-23T02:40:14.795Z,3.41
2023-01-23T02:41:14.789Z,3.44
2023-01-23T02:42:14.779Z,3.42
2023-01-23T02:43:14.792Z,3.42
2023-01-23T02:44:14.795Z,3.44
2023-01-23T02:45:14.746Z,3.44
2023-01-23T02:46:14.741Z,3.45
2023-01-23T02:47:14.745Z,3.45
2023-01-23T02:48:14.737Z,3.47
2023-01-23T02:49:14.703Z,3.45
2023-01-23T02:50:14.709Z,3.44
2023-01-23T02:51:14.731Z,3.42
2023-01-23T02:52:14.687Z,3.42
2023-01-23T02:53:14.656Z,3.41
2023-01-23T02:54:14.650Z,3.40
2023-01-23T02:55:14.694Z,3.37
2023-01-23T02:56:14.757Z,3.37
2023-01-23T02:57:15.576Z,3.34
2023-01-23T02:58:14.612Z,3.32
2023-01-23T02:59:15.543Z,3.32
2023-01-23T03:00:14.604Z,3.29
2023-01-23T03:01:14.629Z,3.26
2023-01-23T03:02:14.671Z,3.23
2023-01-23T03:03:14.557Z,3.21
2023-01-23T03:04:14.539Z,3.16
2023-01-23T03:05:14.548Z,3.11
2023-01-23T03:06:14.692Z,3.08
2023-01-23T03:07:14.509Z,3.04
2023-01-23T03:08:14.496Z,3.00
2023-01-23T03:09:14.485Z,2.95
2023-01-23T03:10:15.437Z,2.92
2023-01-23T03:11:14.465Z,2.87
2023-01-23T03:12:14.466Z,2.85
2023-01-23T03:13:14.451Z,2.82
2023-01-23T03:14:14.443Z,2.77
2023-01-23T03:15:14.425Z,2.72
2023-01-23T03:16:14.470Z,2.69
2023-01-23T03:17:14.421Z,2.67
2023-01-23T03:18:14.385Z,2.64
2023-01-23T03:19:14.383Z,2.61
2023-01-23T03:20:14.627Z,2.56
2023-01-23T03:21:14.386Z,2.54
2023-01-23T03:22:14.352Z,2.53
2023-01-23T03:23:14.327Z,2.49
2023-01-23T03:24:14.316Z,2.47
2023-01-23T03:25:14.344Z,2.46
2023-01-23T03:26:14.319Z,2.44
2023-01-23T03:27:14.295Z,2.44
2023-01-23T03:28:14.280Z,2.44
2023-01-23T03:29:14.277Z,2.46
2023-01-23T03:30:14.245Z,2.49
2023-01-23T03:31:14.277Z,2.49
2023-01-23T03:32:14.228Z,2.50
2023-01-23T03:33:14.221Z,2.50
2023-01-23T03:34:14.202Z,2.53
2023-01-23T03:35:14.206Z,2.57
2023-01-23T03:36:14.208Z,2.60
2023-01-23T03:37:14.183Z,2.57
2023-01-23T03:38:14.182Z,2.60
2023-01-23T03:39:14.177Z,2.64
2023-01-23T03:40:14.198Z,2.64
2023-01-23T03:41:14.121Z,2.67
2023-01-23T03:42:14.126Z,2.68
2023-01-23T03:43:14.126Z,2.69
2023-01-23T03:44:14.116Z,2.72
2023-01-23T03:45:14.110Z,2.72
2023-01-23T03:46:14.266Z,2.75
2023-01-23T03:47:14.063Z,2.75
2023-01-23T03:48:14.060Z,2.79
2023-01-23T03:49:14.044Z,2.80
2023-01-23T03:50:14.039Z,2.83
2023-01-23T03:51:14.163Z,2.83
2023-01-23T03:52:14.021Z,2.86
2023-01-23T03:53:13.999Z,2.87
2023-01-23T03:54:14.001Z,2.87
2023-01-23T03:55:14.012Z,2.89
2023-01-23T03:56:13.975Z,2.90
2023-01-23T03:57:13.989Z,2.95
2023-01-23T03:58:14.916Z,2.97
2023-01-23T03:59:14.253Z,2.98
2023-01-23T04:00:13.933Z,3.00
2023-01-23T04:01:13.947Z,3.01
2023-01-23T04:02:13.918Z,3.01
2023-01-23T04:03:13.940Z,3.01
2023-01-23T04:04:13.895Z,3.01
2023-01-23T04:05:13.920Z,3.01
2023-01-23T04:06:14.027Z,3.05
2023-01-23T04:07:13.857Z,3.05
2023-01-23T04:08:13.971Z,3.05
2023-01-23T04:09:13.847Z,3.05
2023-01-23T04:10:13.846Z,3.07
2023-01-23T04:11:13.820Z,3.05
2023-01-23T04:12:13.793Z,3.05
2023-01-23T04:13:14.109Z,3.04
2023-01-23T04:14:13.778Z,3.05
2023-01-23T04:15:14.142Z,3.07
2023-01-23T04:16:13.875Z,3.07
2023-01-23T04:17:13.756Z,3.07
2023-01-23T04:18:13.768Z,3.08
2023-01-23T04:19:13.804Z,3.10
2023-01-23T04:20:13.723Z,3.11
2023-01-23T04:21:13.698Z,3.11
2023-01-23T04:22:16.139Z,3.10
2023-01-23T04:23:13.706Z,3.13
2023-01-23T04:24:14.265Z,3.11
2023-01-23T04:25:13.681Z,3.13
2023-01-23T04:26:13.788Z,3.16
2023-01-23T04:27:13.650Z,3.14
2023-01-23T04:28:13.643Z,3.13
2023-01-23T04:29:15.072Z,3.14
2023-01-23T04:30:13.616Z,3.13
2023-01-23T04:31:13.783Z,3.14
2023-01-23T04:32:13.585Z,3.13
2023-01-23T04:33:13.573Z,3.13
2023-01-23T04:34:13.596Z,3.14
2023-01-23T04:35:13.558Z,3.14
2023-01-23T04:36:13.567Z,3.13
2023-01-23T04:37:13.519Z,3.14
2023-01-23T04:38:13.550Z,3.13
2023-01-23T04:39:13.500Z,3.14
2023-01-23T04:40:13.530Z,3.14
2023-01-23T04:41:13.605Z,3.14
2023-01-23T04:42:13.490Z,3.14
2023-01-23T04:43:13.465Z,3.16
2023-01-23T04:44:13.482Z,3.16
2023-01-23T04:45:13.480Z,3.18
2023-01-23T04:46:13.465Z,3.16
2023-01-23T04:47:13.425Z,3.18
2023-01-23T04:48:13.454Z,3.19
2023-01-23T04:49:13.451Z,3.19
2023-01-23T04:50:13.396Z,3.19
2023-01-23T04:51:13.441Z,3.19
2023-01-23T04:52:13.363Z,3.21
2023-01-23T04:53:13.344Z,3.22
2023-01-23T04:54:14.210Z,3.22
2023-01-23T04:55:13.763Z,3.25
2023-01-23T04:56:13.631Z,3.25
2023-01-23T04:57:13.398Z,3.23
2023-01-23T04:58:13.292Z,3.25
2023-01-23T04:59:13.307Z,3.25
2023-01-23T05:00:13.293Z,3.23
2023-01-23T05:01:13.317Z,3.23
2023-01-23T05:02:13.296Z,3.23
2023-01-23T05:03:13.254Z,3.23
2023-01-23T05:04:13.232Z,3.22
2023-01-23T05:05:13.225Z,3.21
2023-01-23T05:06:13.215Z,3.23
2023-01-23T05:07:13.481Z,3.23
2023-01-23T05:08:13.240Z,3.25
2023-01-23T05:09:13.178Z,3.25
2023-01-23T05:10:13.178Z,3.25
2023-01-23T05:11:13.155Z,3.25
2023-01-23T05:12:13.172Z,3.26
2023-01-23T05:13:13.138Z,3.28
2023-01-23T05:14:13.929Z,3.28
2023-01-23T05:15:13.124Z,3.28
2023-01-23T05:16:13.181Z,3.28
2023-01-23T05:17:13.087Z,3.31
2023-01-23T05:18:13.097Z,3.29
2023-01-23T05:19:13.104Z,3.29
2023-01-23T05:20:13.068Z,3.29
2023-01-23T05:21:13.036Z,3.31
2023-01-23T05:22:13.062Z,3.32
2023-01-23T05:23:13.031Z,3.32
2023-01-23T05:24:13.039Z,3.32
2023-01-23T05:25:13.029Z,3.36
2023-01-23T05:26:12.990Z,3.36
2023-01-23T05:27:12.989Z,3.34
2023-01-23T05:28:13.001Z,3.34
2023-01-23T05:29:12.975Z,3.36
2023-01-23T05:30:12.990Z,3.37
2023-01-23T05:31:13.080Z,3.40
2023-01-23T05:32:12.938Z,3.40
2023-01-23T05:33:12.915Z,3.37
2023-01-23T05:34:12.909Z,3.36
2023-01-23T05:35:13.847Z,3.36
2023-01-23T05:36:12.922Z,3.34
2023-01-23T05:37:12.895Z,3.32
2023-01-23T05:38:12.871Z,3.34
2023-01-23T05:39:12.870Z,3.34
2023-01-23T05:40:12.859Z,3.32
2023-01-23T05:41:12.847Z,3.32
2023-01-23T05:42:12.851Z,3.34
2023-01-23T05:43:12.817Z,3.32
2023-01-23T05:44:12.802Z,3.32
2023-01-23T05:45:12.825Z,3.31
2023-01-23T05:46:12.813Z,3.32
2023-01-23T05:47:12.784Z,3.31
2023-01-23T05:48:12.751Z,3.31
2023-01-23T05:49:12.754Z,3.32
2023-01-23T05:50:12.908Z,3.32
2023-01-23T05:51:12.751Z,3.32
2023-01-23T05:52:12.739Z,3.36
2023-01-23T05:53:12.694Z,3.36
2023-01-23T05:54:12.740Z,3.40
2023-01-23T05:55:12.687Z,3.40
2023-01-23T05:56:12.701Z,3.42
2023-01-23T05:57:12.788Z,3.42
2023-01-23T05:58:15.092Z,3.42
2023-01-23T05:59:12.641Z,3.45
2023-01-23T06:00:12.628Z,3.45
2023-01-23T06:01:12.610Z,3.44
2023-01-23T06:02:12.676Z,3.47
2023-01-23T06:03:12.592Z,3.45
2023-01-23T06:04:12.578Z,3.47
2023-01-23T06:05:12.571Z,3.47
2023-01-23T06:06:12.572Z,3.48
2023-01-23T06:07:12.560Z,3.48
2023-01-23T06:08:12.561Z,3.48
2023-01-23T06:09:12.536Z,3.48
2023-01-23T06:10:12.529Z,3.47
2023-01-23T06:11:12.513Z,3.48
2023-01-23T06:12:12.548Z,3.47
2023-01-23T06:13:12.505Z,3.47
2023-01-23T06:14:12.507Z,3.48
2023-01-23T06:15:12.460Z,3.48
2023-01-23T06:16:12.556Z,3.47
2023-01-23T06:17:13.388Z,3.45
2023-01-23T06:18:12.484Z,3.48
2023-01-23T06:19:12.410Z,3.45
2023-01-23T06:20:12.428Z,3.45
2023-01-23T06:21:12.398Z,3.44
2023-01-23T06:22:12.379Z,3.44
2023-01-23T06:23:12.386Z,3.42
2023-01-23T06:24:12.367Z,3.41
2023-01-23T06:25:12.375Z,3.40
2023-01-23T06:26:12.329Z,3.36
2023-01-23T06:27:12.350Z,3.34
2023-01-23T06:28:12.338Z,3.31
2023-01-23T06:29:12.330Z,3.29
2023-01-23T06:30:12.332Z,3.28
2023-01-23T06:31:12.378Z,3.23
2023-01-23T06:32:12.273Z,3.22
2023-01-23T06:33:12.263Z,3.19
2023-01-23T06:34:12.268Z,3.18
2023-01-23T06:35:12.245Z,3.16
2023-01-23T06:36:12.304Z,3.14
2023-01-23T06:37:13.195Z,3.14
2023-01-23T06:38:12.234Z,3.11
2023-01-23T06:39:12.234Z,3.11
2023-01-23T06:40:12.204Z,3.10
2023-01-23T06:41:12.180Z,3.13
2023-01-23T06:42:12.156Z,3.13
2023-01-23T06:43:12.158Z,3.14
2023-01-23T06:44:12.153Z,3.16
2023-01-23T06:45:12.131Z,3.18
2023-01-23T06:46:13.056Z,3.21
2023-01-23T06:47:12.127Z,3.21
2023-01-23T06:48:12.118Z,3.23
2023-01-23T06:49:12.078Z,3.23
2023-01-23T06:50:12.085Z,3.23
2023-01-23T06:51:12.116Z,3.26
2023-01-23T06:52:12.058Z,3.26
2023-01-23T06:53:12.036Z,3.25
2023-01-23T06:54:12.058Z,3.28
2023-01-23T06:55:13.834Z,3.28
2023-01-23T06:56:12.014Z,3.31
2023-01-23T06:57:12.005Z,3.32
2023-01-23T06:58:11.997Z,3.32
2023-01-23T06:59:11.970Z,3.36
2023-01-23T07:00:11.961Z,3.36
2023-01-23T07:01:11.987Z,3.37
2023-01-23T07:02:11.944Z,3.37
2023-01-23T07:03:11.985Z,3.37
2023-01-23T07:04:13.365Z,3.40
2023-01-23T07:05:11.941Z,3.40
2023-01-23T07:06:11.977Z,3.41
2023-01-23T07:07:12.735Z,3.42
2023-01-23T07:08:11.900Z,3.42
2023-01-23T07:09:12.058Z,3.44
2023-01-23T07:10:11.916Z,3.45
2023-01-23T07:11:11.898Z,3.44
2023-01-23T07:12:11.970Z,3.45
2023-01-23T07:13:11.852Z,3.44
2023-01-23T07:14:11.828Z,3.47
2023-01-23T07:15:11.853Z,3.47
2023-01-23T07:16:11.794Z,3.47
2023-01-23T07:17:11.787Z,3.47
2023-01-23T07:18:11.767Z,3.48
2023-01-23T07:19:11.769Z,3.48
2023-01-23T07:20:11.840Z,3.48
2023-01-23T07:21:11.789Z,3.50
2023-01-23T07:22:11.756Z,3.50
2023-01-23T07:23:11.712Z,3.51
2023-01-23T07:24:11.709Z,3.59
2023-01-23T07:25:11.712Z,3.68
2023-01-23T07:26:11.752Z,3.78
2023-01-23T07:27:11.680Z,3.87
2023-01-23T07:28:11.682Z,3.91
2023-01-23T07:29:11.677Z,3.94
2023-01-23T07:30:11.671Z,3.96
2023-01-23T07:31:11.740Z,3.95
2023-01-23T07:32:12.608Z,3.94
2023-01-23T07:33:11.609Z,3.92
2023-01-23T07:34:11.597Z,3.98
2023-01-23T07:35:11.578Z,4.04
2023-01-23T07:36:11.590Z,4.08
2023-01-23T07:37:11.583Z,4.10
2023-01-23T07:38:11.556Z,4.08
2023-01-23T07:39:11.551Z,4.05
2023-01-23T07:40:11.532Z,4.04
2023-01-23T07:41:11.530Z,4.04
2023-01-23T07:42:11.540Z,4.01
2023-01-23T07:43:11.507Z,3.98
2023-01-23T07:44:11.516Z,3.95
2023-01-23T07:45:11.475Z,3.92
2023-01-23T07:46:11.551Z,3.88
2023-01-23T07:47:11.483Z,3.86
2023-01-23T07:48:11.486Z,3.86
2023-01-23T07:49:11.448Z,3.84
2023-01-23T07:50:11.426Z,3.86
2023-01-23T07:51:11.547Z,3.83
2023-01-23T07:52:11.442Z,3.83
2023-01-23T07:53:11.400Z,3.84
2023-01-23T07:54:11.417Z,3.83
2023-01-23T07:55:11.396Z,3.83
2023-01-23T07:56:11.359Z,3.81
2023-01-23T07:57:11.945Z,3.81
2023-01-23T07:58:11.347Z,3.80
2023-01-23T07:59:11.333Z,3.78
2023-01-23T08:00:11.327Z,3.77
2023-01-23T08:01:11.399Z,3.77
2023-01-23T08:02:11.317Z,3.76
2023-01-23T08:03:11.275Z,3.77
2023-01-23T08:04:11.330Z,3.76
2023-01-23T08:05:11.414Z,3.77
2023-01-23T08:06:11.283Z,3.78
2023-01-23T08:07:11.288Z,3.78
2023-01-23T08:08:13.855Z,3.80
2023-01-23T08:09:11.255Z,3.80
2023-01-23T08:10:11.207Z,3.78
2023-01-23T08:11:11.212Z,3.80
2023-01-23T08:12:11.228Z,3.81
2023-01-23T08:13:11.186Z,3.81
2023-01-23T08:14:11.168Z,3.83
2023-01-23T08:15:11.173Z,3.84
2023-01-23T08:16:13.561Z,3.86
2023-01-23T08:17:11.152Z,3.86
2023-01-23T08:18:11.119Z,3.84
2023-01-23T08:19:11.128Z,3.86
2023-01-23T08:20:11.132Z,3.86
2023-01-23T08:21:11.116Z,3.88
2023-01-23T08:22:11.081Z,3.88
2023-01-23T08:23:11.073Z,3.91
2023-01-23T08:24:11.081Z,3.92
2023-01-23T08:25:11.065Z,3.94
2023-01-23T08:26:11.048Z,4.01
2023-01-23T08:27:12.468Z,4.01
2023-01-23T08:28:11.019Z,3.99
2023-01-23T08:29:11.007Z,3.99
2023-01-23T08:30:10.992Z,3.99
2023-01-23T08:31:11.107Z,4.02
2023-01-23T08:32:10.967Z,4.04
2023-01-23T08:33:10.948Z,4.02
2023-01-23T08:34:10.985Z,4.02
2023-01-23T08:35:10.929Z,4.02
2023-01-23T08:36:11.390Z,4.05
2023-01-23T08:37:10.951Z,4.04
2023-01-23T08:38:10.925Z,4.04
2023-01-23T08:39:10.888Z,4.04
2023-01-23T08:40:10.879Z,4.05
2023-01-23T08:41:10.917Z,4.04
2023-01-23T08:42:11.824Z,4.04
2023-01-23T08:43:10.873Z,4.02
2023-01-23T08:44:10.833Z,4.01
2023-01-23T08:45:10.812Z,4.02
2023-01-23T08:46:10.884Z,4.02
2023-01-23T08:47:10.795Z,4.05
2023-01-23T08:48:10.860Z,4.05
2023-01-23T08:49:11.426Z,4.10
2023-01-23T08:50:10.799Z,4.14
2023-01-23T08:51:10.801Z,4.17
2023-01-23T08:52:10.746Z,4.20
2023-01-23T08:53:10.789Z,4.19
2023-01-23T08:54:10.729Z,4.17
2023-01-23T08:55:11.739Z,4.19
2023-01-23T08:56:10.733Z,4.20
2023-01-23T08:57:10.707Z,4.24
2023-01-23T08:58:10.708Z,4.30
2023-01-23T08:59:10.682Z,4.34
2023-01-23T09:00:10.737Z,4.35
2023-01-23T09:01:10.714Z,4.37
2023-01-23T09:02:10.653Z,4.38
2023-01-23T09:03:11.533Z,4.38
2023-01-23T09:04:10.652Z,4.41
2023-01-23T09:05:10.643Z,4.42
2023-01-23T09:06:10.597Z,4.45
2023-01-23T09:07:10.579Z,4.49
2023-01-23T09:08:10.571Z,4.56
2023-01-23T09:09:10.565Z,4.62
2023-01-23T09:10:10.538Z,4.68
2023-01-23T09:11:10.584Z,4.73
2023-01-23T09:12:10.523Z,4.78
2023-01-23T09:13:10.533Z,4.78
2023-01-23T09:14:10.503Z,4.78
2023-01-23T09:15:10.528Z,4.75
2023-01-23T09:16:11.507Z,4.73
2023-01-23T09:17:10.486Z,4.71
2023-01-23T09:18:10.495Z,4.70
2023-01-23T09:19:10.468Z,4.68
2023-01-23T09:20:10.455Z,4.68
2023-01-23T09:21:10.456Z,4.68
2023-01-23T09:22:10.419Z,4.67
2023-01-23T09:23:10.401Z,4.67
2023-01-23T09:24:10.416Z,4.67
2023-01-23T09:25:10.416Z,4.67
2023-01-23T09:26:10.375Z,4.63
2023-01-23T09:27:10.391Z,4.63
2023-01-23T09:28:10.518Z,4.63
2023-01-23T09:29:10.356Z,4.62
2023-01-23T09:30:10.329Z,4.60
2023-01-23T09:31:10.313Z,4.59
2023-01-23T09:32:10.326Z,4.59
2023-01-23T09:33:10.299Z,4.59
2023-01-23T09:34:10.275Z,4.58
2023-01-23T09:35:10.290Z,4.56
2023-01-23T09:36:10.282Z,4.56
2023-01-23T09:37:10.277Z,4.56
2023-01-23T09:38:10.277Z,4.56
2023-01-23T09:39:10.235Z,4.55
2023-01-23T09:40:10.229Z,4.53
2023-01-23T09:41:10.203Z,4.53
2023-01-23T09:42:10.203Z,4.52
2023-01-23T09:43:10.179Z,4.50
2023-01-23T09:44:10.174Z,4.50
2023-01-23T09:45:10.169Z,4.49
2023-01-23T09:46:10.175Z,4.49
2023-01-23T09:47:10.353Z,4.49
2023-01-23T09:48:10.139Z,4.49
2023-01-23T09:49:10.149Z,4.49
2023-01-23T09:50:10.208Z,4.48
2023-01-23T09:51:10.134Z,4.48
2023-01-23T09:52:10.076Z,4.45
2023-01-23T09:53:10.078Z,4.44
2023-01-23T09:54:10.128Z,4.44
2023-01-23T09:55:10.045Z,4.44
2023-01-23T09:56:10.060Z,4.42
2023-01-23T09:57:10.056Z,4.44
2023-01-23T09:58:10.032Z,4.45
2023-01-23T09:59:10.039Z,4.49
2023-01-23T10:00:09.994Z,4.50
2023-01-23T10:01:10.066Z,4.50
2023-01-23T10:02:10.001Z,4.52
2023-01-23T10:03:09.977Z,4.55
2023-01-23T10:04:09.958Z,4.55
2023-01-23T10:05:09.999Z,4.55
2023-01-23T10:06:09.946Z,4.55
2023-01-23T10:07:09.931Z,4.56
2023-01-23T10:08:09.922Z,4.58
2023-01-23T10:09:09.889Z,4.59
2023-01-23T10:10:09.895Z,4.58
2023-01-23T10:11:09.889Z,4.60
2023-01-23T10:12:09.878Z,4.60
2023-01-23T10:13:09.887Z,4.59
2023-01-23T10:14:09.857Z,4.59
2023-01-23T10:15:09.844Z,4.60
2023-01-23T10:16:09.813Z,4.60
2023-01-23T10:17:09.903Z,4.59
2023-01-23T10:18:09.800Z,4.59
2023-01-23T10:19:09.781Z,4.62
2023-01-23T10:20:09.765Z,4.62
2023-01-23T10:21:09.782Z,4.62
2023-01-23T10:22:11.804Z,4.63
2023-01-23T10:23:10.737Z,4.62
2023-01-23T10:24:09.729Z,4.63
2023-01-23T10:25:09.711Z,4.63
2023-01-23T10:26:09.714Z,4.63
2023-01-23T10:27:09.691Z,4.63
2023-01-23T10:28:10.855Z,4.63
2023-01-23T10:29:09.691Z,4.66
2023-01-23T10:30:09.651Z,4.66
2023-01-23T10:31:09.703Z,4.67
2023-01-23T10:32:09.625Z,4.68
2023-01-23T10:33:09.685Z,4.68
2023-01-23T10:34:09.614Z,4.68
2023-01-23T10:35:09.604Z,4.70
2023-01-23T10:36:09.634Z,4.71
2023-01-23T10:37:09.620Z,4.71
2023-01-23T10:38:09.576Z,4.71
2023-01-23T10:39:10.582Z,4.71
2023-01-23T10:40:09.548Z,4.74
2023-01-23T10:41:09.565Z,4.74
2023-01-23T10:42:09.528Z,4.74
2023-01-23T10:43:09.510Z,4.77
2023-01-23T10:44:09.543Z,4.78
2023-01-23T10:45:09.500Z,4.77
2023-01-23T10:46:09.552Z,4.77
2023-01-23T10:47:09.477Z,4.78
2023-01-23T10:48:16.125Z,4.78
2023-01-23T10:49:10.468Z,4.78
2023-01-23T10:50:09.425Z,4.84
2023-01-23T10:51:09.466Z,4.86
2023-01-23T10:52:09.473Z,4.86
2023-01-23T10:53:09.400Z,4.87
2023-01-23T10:54:11.361Z,4.89
2023-01-23T10:55:09.427Z,4.89
2023-01-23T10:56:09.368Z,4.90
2023-01-23T10:57:09.396Z,4.92
2023-01-23T10:58:09.358Z,4.92
2023-01-23T10:59:09.328Z,4.92
2023-01-23T11:00:09.320Z,4.93
2023-01-23T11:01:09.369Z,4.93
2023-01-23T11:02:09.519Z,4.93
2023-01-23T11:03:09.372Z,4.93
2023-01-23T11:04:09.283Z,4.93
2023-01-23T11:05:09.273Z,4.93
2023-01-23T11:06:09.274Z,4.92
2023-01-23T11:07:09.264Z,4.92
2023-01-23T11:08:09.271Z,4.90
2023-01-23T11:09:09.252Z,4.89
2023-01-23T11:10:09.216Z,4.87
2023-01-23T11:11:09.208Z,4.89
2023-01-23T11:12:09.197Z,4.90
2023-01-23T11:13:09.181Z,4.92
2023-01-23T11:14:09.208Z,4.90
2023-01-23T11:15:09.201Z,4.90
2023-01-23T11:16:09.177Z,4.92
2023-01-23T11:17:09.150Z,4.90
2023-01-23T11:18:09.151Z,4.89
2023-01-23T11:19:09.135Z,4.90
2023-01-23T11:20:09.131Z,4.90
2023-01-23T11:21:09.126Z,4.89
2023-01-23T11:22:09.077Z,4.90
2023-01-23T11:23:09.139Z,4.89
2023-01-23T11:24:09.117Z,4.92
2023-01-23T11:25:09.057Z,4.93
2023-01-23T11:26:11.244Z,4.94
2023-01-23T11:27:09.065Z,4.94
2023-01-23T11:28:09.024Z,4.94
2023-01-23T11:29:10.017Z,4.92
2023-01-23T11:30:09.073Z,4.93
2023-01-23T11:31:15.515Z,4.92
2023-01-23T11:32:10.085Z,4.90
2023-01-23T11:33:08.967Z,4.86
2023-01-23T11:34:09.001Z,4.82
2023-01-23T11:35:08.964Z,4.80
2023-01-23T11:36:09.907Z,4.78
2023-01-23T11:37:08.921Z,4.77
2023-01-23T11:38:08.922Z,4.75
2023-01-23T11:39:09.446Z,4.75
2023-01-23T11:40:08.895Z,4.80
2023-01-23T11:41:10.340Z,4.84
2023-01-23T11:42:08.858Z,4.90
2023-01-23T11:43:08.859Z,4.94
2023-01-23T11:44:09.997Z,4.97
2023-01-23T11:45:08.852Z,4.99
2023-01-23T11:46:08.860Z,5.00
2023-01-23T11:47:08.829Z,5.04
2023-01-23T11:48:09.749Z,5.05
2023-01-23T11:49:08.797Z,5.08
2023-01-23T11:50:10.229Z,5.08
2023-01-23T11:51:09.478Z,5.11
2023-01-23T11:52:08.755Z,5.10
2023-01-23T11:53:10.200Z,5.11
2023-01-23T11:54:08.756Z,5.10
2023-01-23T11:55:09.115Z,5.10
2023-01-23T11:56:08.760Z,5.10
2023-01-23T11:57:08.720Z,5.10
2023-01-23T11:58:08.719Z,5.10
2023-01-23T11:59:08.914Z,5.10
2023-01-23T12:00:08.658Z,5.07
2023-01-23T12:01:08.660Z,5.08
2023-01-23T12:02:08.746Z,5.07
2023-01-23T12:03:08.652Z,5.08
2023-01-23T12:04:08.727Z,5.08
2023-01-23T12:05:08.999Z,5.08
2023-01-23T12:06:19.726Z,5.10
2023-01-23T12:07:09.603Z,5.10
2023-01-23T12:08:09.404Z,5.10
2023-01-23T12:09:08.644Z,5.10
2023-01-23T12:10:08.656Z,5.10
2023-01-23T12:11:08.532Z,5.10
2023-01-23T12:12:08.561Z,5.10
2023-01-23T12:13:08.733Z,5.10
2023-01-23T12:14:08.549Z,5.11
2023-01-23T12:15:08.776Z,5.12
2023-01-23T12:16:08.655Z,5.12
2023-01-23T12:17:08.511Z,5.14
2023-01-23T12:18:08.679Z,5.14
2023-01-23T12:19:08.654Z,5.17
2023-01-23T12:20:08.464Z,5.20
2023-01-23T12:21:08.447Z,5.20
2023-01-23T12:22:09.888Z,5.20
2023-01-23T12:23:08.493Z,5.23
2023-01-23T12:24:08.436Z,5.23
2023-01-23T12:25:08.403Z,5.25
2023-01-23T12:26:08.406Z,5.23
2023-01-23T12:27:09.814Z,5.23
2023-01-23T12:28:08.380Z,5.25
2023-01-23T12:29:08.375Z,5.25
2023-01-23T12:30:08.356Z,5.25
2023-01-23T12:31:08.433Z,5.25
2023-01-23T12:32:08.359Z,5.23
2023-01-23T12:33:08.301Z,5.23
2023-01-23T12:34:09.082Z,5.21
2023-01-23T12:35:08.736Z,5.23
2023-01-23T12:36:08.301Z,5.21
2023-01-23T12:37:14.440Z,5.21
2023-01-23T12:38:09.459Z,5.20
2023-01-23T12:39:08.247Z,5.17
2023-01-23T12:40:08.770Z,5.17
2023-01-23T12:41:08.344Z,5.17
2023-01-23T12:42:08.245Z,5.17
2023-01-23T12:43:08.188Z,5.15
2023-01-23T12:44:08.181Z,5.17
2023-01-23T12:45:08.179Z,5.15
2023-01-23T12:46:08.208Z,5.17
2023-01-23T12:47:08.185Z,5.17
2023-01-23T12:48:08.150Z,5.15
2023-01-23T12:49:08.121Z,5.15
2023-01-23T12:50:08.653Z,5.15
2023-01-23T12:51:08.168Z,5.12
2023-01-23T12:52:08.090Z,5.12
2023-01-23T12:53:08.111Z,5.10
2023-01-23T12:54:08.113Z,5.08
2023-01-23T12:55:08.051Z,5.07
2023-01-23T12:56:08.065Z,5.08
2023-01-23T12:57:08.049Z,5.07
2023-01-23T12:58:09.510Z,5.05
2023-01-23T12:59:08.918Z,5.04
2023-01-23T13:00:08.021Z,5.05
2023-01-23T13:01:08.823Z,5.00
2023-01-23T13:02:08.124Z,4.99
2023-01-23T13:03:08.124Z,5.00
2023-01-23T13:04:07.970Z,4.97
2023-01-23T13:05:07.973Z,4.96
2023-01-23T13:06:07.954Z,4.96
2023-01-23T13:07:07.987Z,4.97
2023-01-23T13:08:07.933Z,4.94
2023-01-23T13:09:16.997Z,4.96
2023-01-23T13:10:09.023Z,4.96
2023-01-23T13:11:07.880Z,4.94
2023-01-23T13:12:07.935Z,4.96
2023-01-23T13:13:08.115Z,4.96
2023-01-23T13:14:07.865Z,4.97
2023-01-23T13:15:34.382Z,4.96
2023-01-23T13:16:08.856Z,4.97
2023-01-23T13:17:07.822Z,4.99
2023-01-23T13:18:07.808Z,5.02